sensor_id;sensor_type;location;lat;lon;timestamp;P1;durP1;ratioP1;P2;durP2;ratioP2
9974;SDS011;5028;50.974;4.968;2023-06-26T00:00:22;3.90;;;3.50;;
9974;SDS011;5028;50.974;4.968;2023-06-26T00:02:51;5.23;;;3.57;;
9974;SDS011;5028;50.974;4.968;2023-06-26T00:05:19;6.23;;;3.50;;
9974;SDS011;5028;50.974;4.968;2023-06-26T00:07:48;3.83;;;3.53;;
9974;SDS011;5028;50.974;4.968;2023-06-26T00:10:18;4.07;;;3.67;;
9974;SDS011;5028;50.974;4.968;2023-06-26T00:12:47;5.17;;;3.90;;
9974;SDS011;5028;50.974;4.968;2023-06-26T00:15:16;5.63;;;3.83;;
9974;SDS011;5028;50.974;4.968;2023-06-26T00:17:45;3.63;;;3.33;;
9974;SDS011;5028;50.974;4.968;2023-06-26T00:20:14;4.40;;;3.60;;
9974;SDS011;5028;50.974;4.968;2023-06-26T00:22:45;3.97;;;3.17;;
9974;SDS011;5028;50.974;4.968;2023-06-26T00:25:13;3.27;;;2.97;;
9974;SDS011;5028;50.974;4.968;2023-06-26T00:27:44;6.60;;;3.20;;
9974;SDS011;5028;50.974;4.968;2023-06-26T00:30:12;4.70;;;3.20;;
9974;SDS011;5028;50.974;4.968;2023-06-26T00:32:41;3.47;;;3.17;;
9974;SDS011;5028;50.974;4.968;2023-06-26T00:35:10;6.23;;;3.40;;
9974;SDS011;5028;50.974;4.968;2023-06-26T00:37:39;5.20;;;3.37;;
9974;SDS011;5028;50.974;4.968;2023-06-26T00:40:08;3.73;;;3.10;;
9974;SDS011;5028;50.974;4.968;2023-06-26T00:42:39;4.13;;;3.57;;
9974;SDS011;5028;50.974;4.968;2023-06-26T00:45:09;4.00;;;3.50;;
9974;SDS011;5028;50.974;4.968;2023-06-26T00:47:38;5.57;;;3.60;;
9974;SDS011;5028;50.974;4.968;2023-06-26T00:50:08;3.80;;;3.47;;
9974;SDS011;5028;50.974;4.968;2023-06-26T00:52:36;3.67;;;3.00;;
9974;SDS011;5028;50.974;4.968;2023-06-26T00:55:05;5.50;;;3.40;;
9974;SDS011;5028;50.974;4.968;2023-06-26T00:57:34;3.23;;;2.93;;
9974;SDS011;5028;50.974;4.968;2023-06-26T01:00:05;5.67;;;3.10;;
9974;SDS011;5028;50.974;4.968;2023-06-26T01:02:42;4.53;;;3.50;;
9974;SDS011;5028;50.974;4.968;2023-06-26T01:05:11;5.73;;;3.27;;
9974;SDS011;5028;50.974;4.968;2023-06-26T01:07:47;5.63;;;3.30;;
9974;SDS011;5028;50.974;4.968;2023-06-26T01:10:18;5.07;;;3.57;;
9974;SDS011;5028;50.974;4.968;2023-06-26T01:12:47;3.57;;;3.27;;
9974;SDS011;5028;50.974;4.968;2023-06-26T01:15:16;6.63;;;3.47;;
9974;SDS011;5028;50.974;4.968;2023-06-26T01:17:48;3.50;;;3.10;;
9974;SDS011;5028;50.974;4.968;2023-06-26T01:20:19;4.97;;;3.40;;
9974;SDS011;5028;50.974;4.968;2023-06-26T01:22:48;4.90;;;3.40;;
9974;SDS011;5028;50.974;4.968;2023-06-26T01:25:29;5.10;;;3.43;;
9974;SDS011;5028;50.974;4.968;2023-06-26T01:28:10;4.10;;;3.43;;
9974;SDS011;5028;50.974;4.968;2023-06-26T01:30:42;4.20;;;3.23;;
9974;SDS011;5028;50.974;4.968;2023-06-26T01:33:12;3.80;;;3.50;;
9974;SDS011;5028;50.974;4.968;2023-06-26T01:35:41;7.53;;;3.53;;
9974;SDS011;5028;50.974;4.968;2023-06-26T01:38:13;3.77;;;3.20;;
9974;SDS011;5028;50.974;4.968;2023-06-26T01:40:44;5.67;;;3.10;;
9974;SDS011;5028;50.974;4.968;2023-06-26T01:43:19;4.13;;;3.20;;
9974;SDS011;5028;50.974;4.968;2023-06-26T01:45:57;5.00;;;3.30;;
9974;SDS011;5028;50.974;4.968;2023-06-26T01:48:30;4.30;;;3.20;;
9974;SDS011;5028;50.974;4.968;2023-06-26T01:51:05;3.47;;;3.07;;
9974;SDS011;5028;50.974;4.968;2023-06-26T01:53:36;4.13;;;3.20;;
9974;SDS011;5028;50.974;4.968;2023-06-26T01:56:08;3.57;;;2.97;;
9974;SDS011;5028;50.974;4.968;2023-06-26T01:58:46;5.00;;;3.10;;
9974;SDS011;5028;50.974;4.968;2023-06-26T02:01:18;3.37;;;3.07;;
9974;SDS011;5028;50.974;4.968;2023-06-26T02:03:47;3.27;;;2.97;;
9974;SDS011;5028;50.974;4.968;2023-06-26T02:06:15;7.30;;;3.30;;
9974;SDS011;5028;50.974;4.968;2023-06-26T02:08:44;5.10;;;3.27;;
9974;SDS011;5028;50.974;4.968;2023-06-26T02:11:13;4.13;;;2.70;;
9974;SDS011;5028;50.974;4.968;2023-06-26T02:13:42;5.80;;;2.90;;
9974;SDS011;5028;50.974;4.968;2023-06-26T02:16:12;4.97;;;3.20;;
9974;SDS011;5028;50.974;4.968;2023-06-26T02:18:42;4.50;;;2.70;;
9974;SDS011;5028;50.974;4.968;2023-06-26T02:21:10;4.50;;;2.83;;
9974;SDS011;5028;50.974;4.968;2023-06-26T02:23:39;4.40;;;3.20;;
9974;SDS011;5028;50.974;4.968;2023-06-26T02:26:08;4.43;;;2.70;;
9974;SDS011;5028;50.974;4.968;2023-06-26T02:28:37;5.50;;;2.90;;
9974;SDS011;5028;50.974;4.968;2023-06-26T02:31:05;3.57;;;2.60;;
9974;SDS011;5028;50.974;4.968;2023-06-26T02:33:35;7.37;;;3.37;;
9974;SDS011;5028;50.974;4.968;2023-06-26T02:36:05;4.83;;;3.00;;
9974;SDS011;5028;50.974;4.968;2023-06-26T02:38:34;3.17;;;2.70;;
9974;SDS011;5028;50.974;4.968;2023-06-26T02:41:03;3.93;;;2.80;;
9974;SDS011;5028;50.974;4.968;2023-06-26T02:43:31;5.20;;;3.00;;
9974;SDS011;5028;50.974;4.968;2023-06-26T02:46:00;4.03;;;3.17;;
9974;SDS011;5028;50.974;4.968;2023-06-26T02:48:29;4.60;;;2.90;;
9974;SDS011;5028;50.974;4.968;2023-06-26T02:50:59;4.43;;;3.07;;
9974;SDS011;5028;50.974;4.968;2023-06-26T02:53:27;5.23;;;2.70;;
9974;SDS011;5028;50.974;4.968;2023-06-26T02:55:56;4.63;;;2.70;;
9974;SDS011;5028;50.974;4.968;2023-06-26T02:58:24;4.70;;;3.20;;
9974;SDS011;5028;50.974;4.968;2023-06-26T03:00:53;7.50;;;3.10;;
9974;SDS011;5028;50.974;4.968;2023-06-26T03:03:23;4.27;;;2.80;;
9974;SDS011;5028;50.974;4.968;2023-06-26T03:05:51;5.33;;;3.00;;
9974;SDS011;5028;50.974;4.968;2023-06-26T03:08:21;5.43;;;2.70;;
9974;SDS011;5028;50.974;4.968;2023-06-26T03:10:50;5.93;;;2.80;;
9974;SDS011;5028;50.974;4.968;2023-06-26T03:13:19;5.33;;;3.00;;
9974;SDS011;5028;50.974;4.968;2023-06-26T03:15:48;3.87;;;2.60;;
9974;SDS011;5028;50.974;4.968;2023-06-26T03:18:17;5.83;;;2.73;;
9974;SDS011;5028;50.974;4.968;2023-06-26T03:20:45;7.17;;;3.00;;
9974;SDS011;5028;50.974;4.968;2023-06-26T03:23:14;5.73;;;3.07;;
9974;SDS011;5028;50.974;4.968;2023-06-26T03:25:45;5.73;;;3.33;;
9974;SDS011;5028;50.974;4.968;2023-06-26T03:28:14;4.17;;;2.70;;
9974;SDS011;5028;50.974;4.968;2023-06-26T03:30:42;5.47;;;2.90;;
9974;SDS011;5028;50.974;4.968;2023-06-26T03:33:11;5.80;;;2.90;;
9974;SDS011;5028;50.974;4.968;2023-06-26T03:35:40;5.47;;;3.33;;
9974;SDS011;5028;50.974;4.968;2023-06-26T03:38:09;4.20;;;2.57;;
9974;SDS011;5028;50.974;4.968;2023-06-26T03:40:38;4.97;;;3.00;;
9974;SDS011;5028;50.974;4.968;2023-06-26T03:43:08;6.63;;;2.90;;
9974;SDS011;5028;50.974;4.968;2023-06-26T03:45:37;6.57;;;3.30;;
9974;SDS011;5028;50.974;4.968;2023-06-26T03:48:05;5.57;;;3.10;;
9974;SDS011;5028;50.974;4.968;2023-06-26T03:50:34;4.67;;;3.03;;
9974;SDS011;5028;50.974;4.968;2023-06-26T03:53:03;5.93;;;3.07;;
9974;SDS011;5028;50.974;4.968;2023-06-26T03:55:32;8.50;;;3.20;;
9974;SDS011;5028;50.974;4.968;2023-06-26T03:58:02;6.23;;;3.30;;
9974;SDS011;5028;50.974;4.968;2023-06-26T04:00:32;5.47;;;3.50;;
9974;SDS011;5028;50.974;4.968;2023-06-26T04:03:00;8.33;;;3.60;;
9974;SDS011;5028;50.974;4.968;2023-06-26T04:05:30;7.37;;;3.57;;
9974;SDS011;5028;50.974;4.968;2023-06-26T04:07:59;6.57;;;3.13;;
9974;SDS011;5028;50.974;4.968;2023-06-26T04:10:28;6.90;;;3.50;;
9974;SDS011;5028;50.974;4.968;2023-06-26T04:12:57;8.70;;;3.37;;
9974;SDS011;5028;50.974;4.968;2023-06-26T04:15:26;9.30;;;3.63;;
9974;SDS011;5028;50.974;4.968;2023-06-26T04:17:56;7.03;;;3.37;;
9974;SDS011;5028;50.974;4.968;2023-06-26T04:20:25;7.57;;;3.50;;
9974;SDS011;5028;50.974;4.968;2023-06-26T04:22:53;8.80;;;3.87;;
9974;SDS011;5028;50.974;4.968;2023-06-26T04:25:24;5.73;;;3.30;;
9974;SDS011;5028;50.974;4.968;2023-06-26T04:27:55;8.77;;;3.63;;
9974;SDS011;5028;50.974;4.968;2023-06-26T04:30:24;6.87;;;3.47;;
9974;SDS011;5028;50.974;4.968;2023-06-26T04:32:52;8.47;;;3.57;;
9974;SDS011;5028;50.974;4.968;2023-06-26T04:35:27;7.97;;;3.93;;
9974;SDS011;5028;50.974;4.968;2023-06-26T04:37:55;8.63;;;3.60;;
9974;SDS011;5028;50.974;4.968;2023-06-26T04:40:24;8.30;;;3.63;;
9974;SDS011;5028;50.974;4.968;2023-06-26T04:42:54;9.23;;;4.00;;
9974;SDS011;5028;50.974;4.968;2023-06-26T04:45:23;9.60;;;4.33;;
9974;SDS011;5028;50.974;4.968;2023-06-26T04:47:51;8.53;;;4.00;;
9974;SDS011;5028;50.974;4.968;2023-06-26T04:50:23;12.23;;;3.57;;
9974;SDS011;5028;50.974;4.968;2023-06-26T04:52:54;6.50;;;3.73;;
9974;SDS011;5028;50.974;4.968;2023-06-26T04:55:23;9.00;;;3.60;;
9974;SDS011;5028;50.974;4.968;2023-06-26T04:57:52;9.10;;;3.63;;
9974;SDS011;5028;50.974;4.968;2023-06-26T05:00:22;11.40;;;3.80;;
9974;SDS011;5028;50.974;4.968;2023-06-26T05:02:51;8.37;;;3.83;;
9974;SDS011;5028;50.974;4.968;2023-06-26T05:05:27;9.37;;;3.33;;
9974;SDS011;5028;50.974;4.968;2023-06-26T05:07:57;8.90;;;3.80;;
9974;SDS011;5028;50.974;4.968;2023-06-26T05:10:26;11.30;;;3.77;;
9974;SDS011;5028;50.974;4.968;2023-06-26T05:12:55;7.83;;;3.70;;
9974;SDS011;5028;50.974;4.968;2023-06-26T05:15:23;8.57;;;3.43;;
9974;SDS011;5028;50.974;4.968;2023-06-26T05:17:52;7.93;;;3.50;;
9974;SDS011;5028;50.974;4.968;2023-06-26T05:20:21;8.23;;;3.40;;
9974;SDS011;5028;50.974;4.968;2023-06-26T05:22:50;9.53;;;3.83;;
9974;SDS011;5028;50.974;4.968;2023-06-26T05:25:21;11.13;;;3.80;;
9974;SDS011;5028;50.974;4.968;2023-06-26T05:27:51;7.77;;;3.70;;
9974;SDS011;5028;50.974;4.968;2023-06-26T05:30:20;8.97;;;3.60;;
9974;SDS011;5028;50.974;4.968;2023-06-26T05:32:52;9.50;;;3.50;;
9974;SDS011;5028;50.974;4.968;2023-06-26T05:35:22;9.67;;;3.53;;
9974;SDS011;5028;50.974;4.968;2023-06-26T05:37:53;8.13;;;3.07;;
9974;SDS011;5028;50.974;4.968;2023-06-26T05:40:26;9.73;;;4.10;;
9974;SDS011;5028;50.974;4.968;2023-06-26T05:42:55;11.00;;;3.87;;
9974;SDS011;5028;50.974;4.968;2023-06-26T05:45:24;9.23;;;3.60;;
9974;SDS011;5028;50.974;4.968;2023-06-26T05:47:53;9.17;;;3.77;;
9974;SDS011;5028;50.974;4.968;2023-06-26T05:50:22;10.07;;;3.67;;
9974;SDS011;5028;50.974;4.968;2023-06-26T05:52:51;9.77;;;3.50;;
9974;SDS011;5028;50.974;4.968;2023-06-26T05:55:22;8.27;;;3.57;;
9974;SDS011;5028;50.974;4.968;2023-06-26T05:57:54;7.47;;;3.00;;
9974;SDS011;5028;50.974;4.968;2023-06-26T06:00:26;10.53;;;3.60;;
9974;SDS011;5028;50.974;4.968;2023-06-26T06:02:55;10.83;;;3.33;;
9974;SDS011;5028;50.974;4.968;2023-06-26T06:05:24;9.60;;;3.40;;
9974;SDS011;5028;50.974;4.968;2023-06-26T06:07:52;9.90;;;3.97;;
9974;SDS011;5028;50.974;4.968;2023-06-26T06:10:21;15.53;;;3.67;;
9974;SDS011;5028;50.974;4.968;2023-06-26T06:12:53;15.20;;;3.73;;
9974;SDS011;5028;50.974;4.968;2023-06-26T06:15:21;15.53;;;3.73;;
9974;SDS011;5028;50.974;4.968;2023-06-26T06:17:50;9.97;;;3.30;;
9974;SDS011;5028;50.974;4.968;2023-06-26T06:20:19;14.80;;;4.13;;
9974;SDS011;5028;50.974;4.968;2023-06-26T06:22:47;10.77;;;3.60;;
9974;SDS011;5028;50.974;4.968;2023-06-26T06:25:16;8.00;;;2.93;;
9974;SDS011;5028;50.974;4.968;2023-06-26T06:27:45;6.27;;;2.57;;
9974;SDS011;5028;50.974;4.968;2023-06-26T06:30:15;10.30;;;3.40;;
9974;SDS011;5028;50.974;4.968;2023-06-26T06:32:54;8.73;;;3.20;;
9974;SDS011;5028;50.974;4.968;2023-06-26T06:35:23;17.00;;;3.30;;
9974;SDS011;5028;50.974;4.968;2023-06-26T06:37:55;16.03;;;3.73;;
9974;SDS011;5028;50.974;4.968;2023-06-26T06:40:24;8.17;;;3.07;;
9974;SDS011;5028;50.974;4.968;2023-06-26T06:42:53;8.70;;;3.10;;
9974;SDS011;5028;50.974;4.968;2023-06-26T06:45:23;11.03;;;3.10;;
9974;SDS011;5028;50.974;4.968;2023-06-26T06:47:52;9.53;;;3.17;;
9974;SDS011;5028;50.974;4.968;2023-06-26T06:50:21;7.47;;;2.87;;
9974;SDS011;5028;50.974;4.968;2023-06-26T06:52:49;12.57;;;3.40;;
9974;SDS011;5028;50.974;4.968;2023-06-26T06:55:18;10.20;;;2.70;;
9974;SDS011;5028;50.974;4.968;2023-06-26T06:57:47;5.57;;;2.30;;
9974;SDS011;5028;50.974;4.968;2023-06-26T07:00:16;8.17;;;2.87;;
9974;SDS011;5028;50.974;4.968;2023-06-26T07:02:46;8.57;;;2.97;;
9974;SDS011;5028;50.974;4.968;2023-06-26T07:05:15;9.60;;;2.80;;
9974;SDS011;5028;50.974;4.968;2023-06-26T07:07:44;10.07;;;2.93;;
9974;SDS011;5028;50.974;4.968;2023-06-26T07:10:13;8.57;;;2.80;;
9974;SDS011;5028;50.974;4.968;2023-06-26T07:12:42;7.70;;;3.00;;
9974;SDS011;5028;50.974;4.968;2023-06-26T07:15:11;7.87;;;2.93;;
9974;SDS011;5028;50.974;4.968;2023-06-26T07:17:40;7.93;;;2.80;;
9974;SDS011;5028;50.974;4.968;2023-06-26T07:20:11;5.97;;;2.70;;
9974;SDS011;5028;50.974;4.968;2023-06-26T07:22:42;8.13;;;2.70;;
9974;SDS011;5028;50.974;4.968;2023-06-26T07:25:11;5.63;;;2.40;;
9974;SDS011;5028;50.974;4.968;2023-06-26T07:27:40;7.03;;;2.70;;
9974;SDS011;5028;50.974;4.968;2023-06-26T07:30:10;5.67;;;2.50;;
9974;SDS011;5028;50.974;4.968;2023-06-26T07:32:39;7.77;;;2.50;;
9974;SDS011;5028;50.974;4.968;2023-06-26T07:35:09;6.57;;;2.60;;
9974;SDS011;5028;50.974;4.968;2023-06-26T07:37:39;9.20;;;2.77;;
9974;SDS011;5028;50.974;4.968;2023-06-26T07:40:08;6.23;;;2.67;;
9974;SDS011;5028;50.974;4.968;2023-06-26T07:42:37;5.80;;;2.43;;
9974;SDS011;5028;50.974;4.968;2023-06-26T07:45:07;6.20;;;2.27;;
9974;SDS011;5028;50.974;4.968;2023-06-26T07:47:38;7.53;;;2.73;;
9974;SDS011;5028;50.974;4.968;2023-06-26T07:50:08;8.20;;;2.50;;
9974;SDS011;5028;50.974;4.968;2023-06-26T07:52:36;8.17;;;2.40;;
9974;SDS011;5028;50.974;4.968;2023-06-26T07:55:08;9.73;;;2.90;;
9974;SDS011;5028;50.974;4.968;2023-06-26T07:57:36;6.13;;;2.70;;
9974;SDS011;5028;50.974;4.968;2023-06-26T08:00:06;10.03;;;2.43;;
9974;SDS011;5028;50.974;4.968;2023-06-26T08:02:35;7.20;;;2.43;;
9974;SDS011;5028;50.974;4.968;2023-06-26T08:05:04;9.73;;;2.40;;
9974;SDS011;5028;50.974;4.968;2023-06-26T08:07:33;5.90;;;2.20;;
9974;SDS011;5028;50.974;4.968;2023-06-26T08:10:04;7.20;;;2.13;;
9974;SDS011;5028;50.974;4.968;2023-06-26T08:12:33;4.70;;;2.10;;
9974;SDS011;5028;50.974;4.968;2023-06-26T08:15:03;6.40;;;2.50;;
9974;SDS011;5028;50.974;4.968;2023-06-26T08:17:33;4.03;;;1.80;;
9974;SDS011;5028;50.974;4.968;2023-06-26T08:20:02;4.30;;;2.10;;
9974;SDS011;5028;50.974;4.968;2023-06-26T08:22:35;5.90;;;2.33;;
9974;SDS011;5028;50.974;4.968;2023-06-26T08:25:05;7.33;;;2.20;;
9974;SDS011;5028;50.974;4.968;2023-06-26T08:27:34;5.57;;;2.23;;
9974;SDS011;5028;50.974;4.968;2023-06-26T08:30:04;6.87;;;2.47;;
9974;SDS011;5028;50.974;4.968;2023-06-26T08:32:33;4.53;;;2.00;;
9974;SDS011;5028;50.974;4.968;2023-06-26T08:35:01;5.40;;;1.80;;
9974;SDS011;5028;50.974;4.968;2023-06-26T08:37:30;4.43;;;1.93;;
9974;SDS011;5028;50.974;4.968;2023-06-26T08:39:59;8.37;;;2.27;;
9974;SDS011;5028;50.974;4.968;2023-06-26T08:42:29;18.70;;;3.47;;
9974;SDS011;5028;50.974;4.968;2023-06-26T08:44:58;9.10;;;2.37;;
9974;SDS011;5028;50.974;4.968;2023-06-26T08:47:29;7.33;;;2.17;;
9974;SDS011;5028;50.974;4.968;2023-06-26T08:50:01;7.30;;;2.00;;
9974;SDS011;5028;50.974;4.968;2023-06-26T08:52:36;5.53;;;1.80;;
9974;SDS011;5028;50.974;4.968;2023-06-26T08:55:09;5.50;;;2.07;;
9974;SDS011;5028;50.974;4.968;2023-06-26T08:57:41;13.17;;;3.10;;
9974;SDS011;5028;50.974;4.968;2023-06-26T09:00:13;9.07;;;2.27;;
9974;SDS011;5028;50.974;4.968;2023-06-26T09:02:43;5.13;;;1.80;;
9974;SDS011;5028;50.974;4.968;2023-06-26T09:05:13;3.77;;;1.67;;
9974;SDS011;5028;50.974;4.968;2023-06-26T09:07:42;4.50;;;1.70;;
9974;SDS011;5028;50.974;4.968;2023-06-26T09:10:11;3.57;;;1.50;;
9974;SDS011;5028;50.974;4.968;2023-06-26T09:12:47;7.27;;;1.97;;
9974;SDS011;5028;50.974;4.968;2023-06-26T09:15:19;4.87;;;1.60;;
9974;SDS011;5028;50.974;4.968;2023-06-26T09:17:49;6.43;;;1.80;;
9974;SDS011;5028;50.974;4.968;2023-06-26T09:20:18;3.90;;;1.63;;
9974;SDS011;5028;50.974;4.968;2023-06-26T09:22:47;5.40;;;1.80;;
9974;SDS011;5028;50.974;4.968;2023-06-26T09:25:16;5.07;;;1.20;;
9974;SDS011;5028;50.974;4.968;2023-06-26T09:27:47;4.30;;;1.80;;
9974;SDS011;5028;50.974;4.968;2023-06-26T09:30:18;5.83;;;1.60;;
9974;SDS011;5028;50.974;4.968;2023-06-26T09:32:47;4.77;;;1.40;;
9974;SDS011;5028;50.974;4.968;2023-06-26T09:35:17;4.37;;;1.30;;
9974;SDS011;5028;50.974;4.968;2023-06-26T09:37:46;3.63;;;1.50;;
9974;SDS011;5028;50.974;4.968;2023-06-26T09:40:14;5.13;;;1.30;;
9974;SDS011;5028;50.974;4.968;2023-06-26T09:42:43;6.20;;;1.50;;
9974;SDS011;5028;50.974;4.968;2023-06-26T09:45:19;4.03;;;1.53;;
9974;SDS011;5028;50.974;4.968;2023-06-26T09:47:48;5.07;;;1.33;;
9974;SDS011;5028;50.974;4.968;2023-06-26T09:50:23;3.03;;;1.30;;
9974;SDS011;5028;50.974;4.968;2023-06-26T09:52:54;4.07;;;1.30;;
9974;SDS011;5028;50.974;4.968;2023-06-26T09:55:25;3.47;;;1.30;;
9974;SDS011;5028;50.974;4.968;2023-06-26T09:57:54;4.00;;;1.33;;
9974;SDS011;5028;50.974;4.968;2023-06-26T10:00:31;4.00;;;1.27;;
9974;SDS011;5028;50.974;4.968;2023-06-26T10:03:00;4.30;;;1.40;;
9974;SDS011;5028;50.974;4.968;2023-06-26T10:05:29;2.37;;;1.40;;
9974;SDS011;5028;50.974;4.968;2023-06-26T10:07:58;2.23;;;1.40;;
9974;SDS011;5028;50.974;4.968;2023-06-26T10:10:30;3.10;;;1.27;;
9974;SDS011;5028;50.974;4.968;2023-06-26T10:13:04;6.43;;;1.73;;
9974;SDS011;5028;50.974;4.968;2023-06-26T10:15:39;7.47;;;1.47;;
9974;SDS011;5028;50.974;4.968;2023-06-26T10:18:09;4.43;;;1.40;;
9974;SDS011;5028;50.974;4.968;2023-06-26T10:20:39;3.13;;;1.13;;
9974;SDS011;5028;50.974;4.968;2023-06-26T10:23:10;5.10;;;1.43;;
9974;SDS011;5028;50.974;4.968;2023-06-26T10:25:40;2.73;;;1.20;;
9974;SDS011;5028;50.974;4.968;2023-06-26T10:28:11;2.93;;;1.40;;
9974;SDS011;5028;50.974;4.968;2023-06-26T10:30:42;1.90;;;1.20;;
9974;SDS011;5028;50.974;4.968;2023-06-26T10:33:14;2.53;;;1.10;;
9974;SDS011;5028;50.974;4.968;2023-06-26T10:35:44;4.70;;;1.50;;
9974;SDS011;5028;50.974;4.968;2023-06-26T10:38:13;2.40;;;1.30;;
9974;SDS011;5028;50.974;4.968;2023-06-26T10:40:42;5.07;;;1.30;;
9974;SDS011;5028;50.974;4.968;2023-06-26T10:43:11;2.97;;;1.27;;
9974;SDS011;5028;50.974;4.968;2023-06-26T10:45:46;4.93;;;1.40;;
9974;SDS011;5028;50.974;4.968;2023-06-26T10:48:21;3.37;;;1.37;;
9974;SDS011;5028;50.974;4.968;2023-06-26T10:50:50;4.00;;;1.17;;
9974;SDS011;5028;50.974;4.968;2023-06-26T10:53:24;3.97;;;1.17;;
9974;SDS011;5028;50.974;4.968;2023-06-26T10:56:00;2.47;;;1.40;;
9974;SDS011;5028;50.974;4.968;2023-06-26T10:58:33;3.23;;;1.30;;
9974;SDS011;5028;50.974;4.968;2023-06-26T11:01:16;2.63;;;1.37;;
9974;SDS011;5028;50.974;4.968;2023-06-26T11:03:48;3.70;;;1.40;;
9974;SDS011;5028;50.974;4.968;2023-06-26T11:06:34;3.67;;;1.30;;
9974;SDS011;5028;50.974;4.968;2023-06-26T11:09:09;3.67;;;1.40;;
9974;SDS011;5028;50.974;4.968;2023-06-26T11:11:58;5.07;;;1.20;;
9974;SDS011;5028;50.974;4.968;2023-06-26T11:14:34;3.03;;;1.30;;
9974;SDS011;5028;50.974;4.968;2023-06-26T11:17:06;3.60;;;1.30;;
9974;SDS011;5028;50.974;4.968;2023-06-26T11:19:34;3.47;;;1.57;;
9974;SDS011;5028;50.974;4.968;2023-06-26T11:22:04;4.17;;;1.30;;
9974;SDS011;5028;50.974;4.968;2023-06-26T11:24:33;1.93;;;1.00;;
9974;SDS011;5028;50.974;4.968;2023-06-26T11:27:02;4.45;;;1.60;;
9974;SDS011;5028;50.974;4.968;2023-06-26T11:29:33;2.03;;;1.20;;
9974;SDS011;5028;50.974;4.968;2023-06-26T11:32:03;2.83;;;1.40;;
9974;SDS011;5028;50.974;4.968;2023-06-26T11:34:35;3.42;;;0.95;;
9974;SDS011;5028;50.974;4.968;2023-06-26T11:37:04;3.70;;;1.30;;
9974;SDS011;5028;50.974;4.968;2023-06-26T11:39:35;3.30;;;1.02;;
9974;SDS011;5028;50.974;4.968;2023-06-26T11:42:04;3.93;;;1.43;;
9974;SDS011;5028;50.974;4.968;2023-06-26T11:44:39;1.70;;;1.03;;
9974;SDS011;5028;50.974;4.968;2023-06-26T11:47:12;1.97;;;1.13;;
9974;SDS011;5028;50.974;4.968;2023-06-26T11:49:44;2.30;;;1.20;;
9974;SDS011;5028;50.974;4.968;2023-06-26T11:52:14;1.20;;;1.07;;
9974;SDS011;5028;50.974;4.968;2023-06-26T11:54:44;3.33;;;1.20;;
9974;SDS011;5028;50.974;4.968;2023-06-26T11:57:14;3.53;;;1.40;;
9974;SDS011;5028;50.974;4.968;2023-06-26T11:59:44;4.23;;;1.10;;
9974;SDS011;5028;50.974;4.968;2023-06-26T12:02:13;3.33;;;1.33;;
9974;SDS011;5028;50.974;4.968;2023-06-26T12:04:44;3.57;;;1.37;;
9974;SDS011;5028;50.974;4.968;2023-06-26T12:07:14;4.27;;;1.33;;
9974;SDS011;5028;50.974;4.968;2023-06-26T12:09:45;3.27;;;1.40;;
9974;SDS011;5028;50.974;4.968;2023-06-26T12:12:16;3.03;;;1.40;;
9974;SDS011;5028;50.974;4.968;2023-06-26T12:14:45;2.40;;;1.37;;
9974;SDS011;5028;50.974;4.968;2023-06-26T12:17:14;2.40;;;1.23;;
9974;SDS011;5028;50.974;4.968;2023-06-26T12:19:45;3.40;;;1.27;;
9974;SDS011;5028;50.974;4.968;2023-06-26T12:22:16;3.60;;;1.23;;
9974;SDS011;5028;50.974;4.968;2023-06-26T12:24:46;5.50;;;1.60;;
9974;SDS011;5028;50.974;4.968;2023-06-26T12:27:17;3.97;;;1.30;;
9974;SDS011;5028;50.974;4.968;2023-06-26T12:29:49;3.50;;;1.40;;
9974;SDS011;5028;50.974;4.968;2023-06-26T12:32:21;2.90;;;1.23;;
9974;SDS011;5028;50.974;4.968;2023-06-26T12:34:53;1.50;;;1.00;;
9974;SDS011;5028;50.974;4.968;2023-06-26T12:37:25;3.57;;;1.33;;
9974;SDS011;5028;50.974;4.968;2023-06-26T12:39:54;3.20;;;1.37;;
9974;SDS011;5028;50.974;4.968;2023-06-26T12:42:26;5.23;;;1.30;;
9974;SDS011;5028;50.974;4.968;2023-06-26T12:44:58;2.60;;;1.40;;
9974;SDS011;5028;50.974;4.968;2023-06-26T12:47:27;2.93;;;1.40;;
9974;SDS011;5028;50.974;4.968;2023-06-26T12:50:04;3.33;;;1.23;;
9974;SDS011;5028;50.974;4.968;2023-06-26T12:52:34;1.80;;;1.10;;
9974;SDS011;5028;50.974;4.968;2023-06-26T12:55:03;3.07;;;1.30;;
9974;SDS011;5028;50.974;4.968;2023-06-26T12:57:34;2.97;;;1.30;;
9974;SDS011;5028;50.974;4.968;2023-06-26T13:00:02;3.60;;;1.37;;
9974;SDS011;5028;50.974;4.968;2023-06-26T13:02:32;4.70;;;1.30;;
9974;SDS011;5028;50.974;4.968;2023-06-26T13:05:03;3.47;;;1.33;;
9974;SDS011;5028;50.974;4.968;2023-06-26T13:07:32;5.43;;;1.15;;
9974;SDS011;5028;50.974;4.968;2023-06-26T13:10:01;3.63;;;1.23;;
9974;SDS011;5028;50.974;4.968;2023-06-26T13:12:30;4.00;;;1.27;;
9974;SDS011;5028;50.974;4.968;2023-06-26T13:14:58;2.83;;;1.27;;
9974;SDS011;5028;50.974;4.968;2023-06-26T13:17:27;4.47;;;1.40;;
9974;SDS011;5028;50.974;4.968;2023-06-26T13:19:56;7.00;;;1.33;;
9974;SDS011;5028;50.974;4.968;2023-06-26T13:22:26;3.00;;;1.23;;
9974;SDS011;5028;50.974;4.968;2023-06-26T13:24:55;3.70;;;1.30;;
9974;SDS011;5028;50.974;4.968;2023-06-26T13:27:23;3.17;;;1.33;;
9974;SDS011;5028;50.974;4.968;2023-06-26T13:29:52;3.30;;;1.30;;
9974;SDS011;5028;50.974;4.968;2023-06-26T13:32:21;2.67;;;1.37;;
9974;SDS011;5028;50.974;4.968;2023-06-26T13:34:49;5.20;;;1.37;;
9974;SDS011;5028;50.974;4.968;2023-06-26T13:37:20;4.60;;;1.40;;
9974;SDS011;5028;50.974;4.968;2023-06-26T13:39:51;3.20;;;1.30;;
9974;SDS011;5028;50.974;4.968;2023-06-26T13:42:22;4.27;;;1.27;;
9974;SDS011;5028;50.974;4.968;2023-06-26T13:44:51;4.03;;;1.30;;
9974;SDS011;5028;50.974;4.968;2023-06-26T13:47:31;3.53;;;1.23;;
9974;SDS011;5028;50.974;4.968;2023-06-26T13:50:01;7.23;;;1.50;;
9974;SDS011;5028;50.974;4.968;2023-06-26T13:52:29;2.20;;;1.10;;
9974;SDS011;5028;50.974;4.968;2023-06-26T13:55:11;2.23;;;1.30;;
9974;SDS011;5028;50.974;4.968;2023-06-26T13:57:40;2.40;;;1.20;;
9974;SDS011;5028;50.974;4.968;2023-06-26T14:00:09;3.27;;;1.40;;
9974;SDS011;5028;50.974;4.968;2023-06-26T14:02:39;3.73;;;1.30;;
9974;SDS011;5028;50.974;4.968;2023-06-26T14:05:08;4.13;;;1.40;;
9974;SDS011;5028;50.974;4.968;2023-06-26T14:07:37;4.33;;;1.40;;
9974;SDS011;5028;50.974;4.968;2023-06-26T14:10:08;3.80;;;1.53;;
9974;SDS011;5028;50.974;4.968;2023-06-26T14:12:37;5.03;;;1.70;;
9974;SDS011;5028;50.974;4.968;2023-06-26T14:15:06;2.47;;;1.30;;
9974;SDS011;5028;50.974;4.968;2023-06-26T14:17:35;2.27;;;1.40;;
9974;SDS011;5028;50.974;4.968;2023-06-26T14:20:06;4.80;;;1.27;;
9974;SDS011;5028;50.974;4.968;2023-06-26T14:22:39;3.80;;;1.47;;
9974;SDS011;5028;50.974;4.968;2023-06-26T14:25:11;2.60;;;1.40;;
9974;SDS011;5028;50.974;4.968;2023-06-26T14:27:41;3.92;;;1.40;;
9974;SDS011;5028;50.974;4.968;2023-06-26T14:30:10;5.20;;;1.53;;
9974;SDS011;5028;50.974;4.968;2023-06-26T14:32:39;3.28;;;1.58;;
9974;SDS011;5028;50.974;4.968;2023-06-26T14:35:08;2.67;;;1.20;;
9974;SDS011;5028;50.974;4.968;2023-06-26T14:37:38;4.53;;;1.40;;
9974;SDS011;5028;50.974;4.968;2023-06-26T14:40:08;3.43;;;1.50;;
9974;SDS011;5028;50.974;4.968;2023-06-26T14:42:39;3.20;;;1.40;;
9974;SDS011;5028;50.974;4.968;2023-06-26T14:45:10;2.67;;;1.40;;
9974;SDS011;5028;50.974;4.968;2023-06-26T14:47:40;2.87;;;1.23;;
9974;SDS011;5028;50.974;4.968;2023-06-26T14:50:09;2.63;;;1.53;;
9974;SDS011;5028;50.974;4.968;2023-06-26T14:52:37;4.10;;;1.20;;
9974;SDS011;5028;50.974;4.968;2023-06-26T14:55:06;2.90;;;1.27;;
9974;SDS011;5028;50.974;4.968;2023-06-26T14:57:36;5.43;;;1.53;;
9974;SDS011;5028;50.974;4.968;2023-06-26T15:00:07;5.07;;;1.30;;
9974;SDS011;5028;50.974;4.968;2023-06-26T15:02:37;5.13;;;1.47;;
9974;SDS011;5028;50.974;4.968;2023-06-26T15:05:06;4.27;;;1.40;;
9974;SDS011;5028;50.974;4.968;2023-06-26T15:07:35;2.67;;;1.33;;
9974;SDS011;5028;50.974;4.968;2023-06-26T15:10:04;2.53;;;1.47;;
9974;SDS011;5028;50.974;4.968;2023-06-26T15:12:33;2.70;;;1.20;;
9974;SDS011;5028;50.974;4.968;2023-06-26T15:15:02;5.27;;;1.37;;
9974;SDS011;5028;50.974;4.968;2023-06-26T15:17:33;2.60;;;1.50;;
9974;SDS011;5028;50.974;4.968;2023-06-26T15:20:01;7.53;;;1.60;;
9974;SDS011;5028;50.974;4.968;2023-06-26T15:22:30;2.93;;;1.40;;
9974;SDS011;5028;50.974;4.968;2023-06-26T15:25:00;4.27;;;1.43;;
9974;SDS011;5028;50.974;4.968;2023-06-26T15:27:29;3.00;;;1.33;;
9974;SDS011;5028;50.974;4.968;2023-06-26T15:29:58;4.03;;;1.60;;
9974;SDS011;5028;50.974;4.968;2023-06-26T15:32:27;4.53;;;1.50;;